createdAt,value
2018-07-12T00:00:54.137Z,81.75
2018-07-12T00:03:22.231Z,82.02
2018-07-12T00:05:50.162Z,82.27
2018-07-12T00:08:18.136Z,82.20
2018-07-12T00:10:46.131Z,81.81
2018-07-12T00:13:14.134Z,82.28
2018-07-12T00:15:42.110Z,82.10
2018-07-12T00:18:10.130Z,81.95
2018-07-12T00:20:38.161Z,81.67
2018-07-12T00:23:06.133Z,81.96
2018-07-12T00:25:34.074Z,82.00
2018-07-12T00:28:02.121Z,82.00
2018-07-12T00:30:30.137Z,82.20
2018-07-12T00:32:58.225Z,81.87
2018-07-12T00:35:26.197Z,82.39
2018-07-12T00:37:54.183Z,82.72
2018-07-12T00:40:22.745Z,82.13
2018-07-12T00:42:50.682Z,83.53
2018-07-12T00:45:18.622Z,83.90
2018-07-12T00:47:46.674Z,83.24
2018-07-12T00:50:15.293Z,82.96
2018-07-12T00:52:45.902Z,82.95
2018-07-12T00:55:16.621Z,82.99
2018-07-12T00:57:46.550Z,82.86
2018-07-12T01:00:16.197Z,82.15
2018-07-12T01:02:45.830Z,82.62
2018-07-12T01:05:15.002Z,82.35
2018-07-12T01:07:42.942Z,82.56
2018-07-12T01:10:10.929Z,82.57
2018-07-12T01:12:39.186Z,82.56
2018-07-12T01:15:07.221Z,82.93
2018-07-12T01:17:35.209Z,82.98
2018-07-12T01:20:03.166Z,82.41
2018-07-12T01:22:31.312Z,82.93
2018-07-12T01:24:59.263Z,82.95
2018-07-12T01:27:27.262Z,83.04
2018-07-12T01:29:55.261Z,82.73
2018-07-12T01:32:23.221Z,82.71
2018-07-12T01:34:51.217Z,82.45
2018-07-12T01:37:19.948Z,82.93
2018-07-12T01:39:48.169Z,83.09
2018-07-12T01:42:16.210Z,83.28
2018-07-12T01:44:44.137Z,82.83
2018-07-12T01:47:12.213Z,83.00
2018-07-12T01:49:40.208Z,83.10
2018-07-12T01:52:08.141Z,83.25
2018-07-12T01:54:36.233Z,82.97
2018-07-12T01:57:04.230Z,83.28
2018-07-12T01:59:32.218Z,82.70
2018-07-12T02:02:00.196Z,82.61
2018-07-12T02:04:28.136Z,82.89
2018-07-12T02:06:56.135Z,83.25
2018-07-12T02:09:24.190Z,83.10
2018-07-12T02:11:52.178Z,82.76
2018-07-12T02:14:20.194Z,82.91
2018-07-12T02:16:48.169Z,82.61
2018-07-12T02:19:16.222Z,82.67
2018-07-12T02:21:44.156Z,82.42
2018-07-12T02:24:12.173Z,82.63
2018-07-12T02:26:40.102Z,82.10
2018-07-12T02:29:08.113Z,82.42
2018-07-12T02:31:36.186Z,82.55
2018-07-12T02:34:04.162Z,82.57
2018-07-12T02:36:32.210Z,82.66
2018-07-12T02:39:00.156Z,82.28
2018-07-12T02:41:28.154Z,81.46
2018-07-12T02:43:56.115Z,82.12
2018-07-12T02:46:24.092Z,82.29
2018-07-12T02:48:52.279Z,82.00
2018-07-12T02:51:20.208Z,82.13
2018-07-12T02:53:48.401Z,82.00
2018-07-12T02:56:16.653Z,81.98
2018-07-12T02:58:44.597Z,81.84
2018-07-12T03:01:12.975Z,81.75
2018-07-12T03:03:40.966Z,81.66
2018-07-12T03:06:09.288Z,81.88
2018-07-12T03:08:38.028Z,81.98
2018-07-12T03:11:08.716Z,81.85
2018-07-12T03:13:38.430Z,81.99
2018-07-12T03:16:09.134Z,81.66
2018-07-12T03:18:38.824Z,81.63
2018-07-12T03:21:07.950Z,81.51
2018-07-12T03:23:35.894Z,81.79
2018-07-12T03:26:03.925Z,81.66
2018-07-12T03:28:32.184Z,81.82
2018-07-12T03:31:00.258Z,81.92
2018-07-12T03:33:28.241Z,82.00
2018-07-12T03:35:56.221Z,81.90
2018-07-12T03:38:24.199Z,81.98
2018-07-12T03:40:52.189Z,82.21
2018-07-12T03:43:20.585Z,81.96
2018-07-12T03:45:48.773Z,82.42
2018-07-12T03:48:16.747Z,81.78
2018-07-12T03:50:45.103Z,82.19
2018-07-12T03:53:13.205Z,82.43
2018-07-12T03:55:41.325Z,82.31
2018-07-12T03:58:09.299Z,82.15
2018-07-12T04:00:37.259Z,82.97
2018-07-12T04:03:05.221Z,83.43
2018-07-12T04:05:33.178Z,83.48
2018-07-12T04:08:01.133Z,82.02
2018-07-12T04:10:29.198Z,82.20
2018-07-12T04:12:57.189Z,82.30
2018-07-12T04:15:25.145Z,82.41
2018-07-12T04:17:53.161Z,82.24
2018-07-12T04:20:21.211Z,82.61
2018-07-12T04:22:49.138Z,82.07
2018-07-12T04:25:17.337Z,82.31
2018-07-12T04:27:45.280Z,82.66
2018-07-12T04:30:13.281Z,82.37
2018-07-12T04:32:41.532Z,82.73
2018-07-12T04:35:09.462Z,83.14
2018-07-12T04:37:37.463Z,82.30
2018-07-12T04:40:05.590Z,83.05
2018-07-12T04:42:33.585Z,82.82
2018-07-12T04:45:01.879Z,83.54
2018-07-12T04:47:30.178Z,82.78
2018-07-12T04:49:58.161Z,82.86
2018-07-12T04:52:26.169Z,83.27
2018-07-12T04:54:54.109Z,83.41
2018-07-12T04:57:22.188Z,83.21
2018-07-12T04:59:50.190Z,84.33
2018-07-12T05:02:18.210Z,84.27
2018-07-12T05:04:46.184Z,84.14
2018-07-12T05:07:14.131Z,84.10
2018-07-12T05:09:42.229Z,83.64
2018-07-12T05:12:10.341Z,83.48
2018-07-12T05:14:38.397Z,83.26
2018-07-12T05:17:06.354Z,83.35
2018-07-12T05:19:34.849Z,83.05
2018-07-12T05:22:02.895Z,82.96
2018-07-12T05:24:31.002Z,82.82
2018-07-12T05:26:58.981Z,83.26
2018-07-12T05:29:29.633Z,83.23
2018-07-12T05:32:00.455Z,83.38
2018-07-12T05:34:30.613Z,83.81
2018-07-12T05:37:02.740Z,83.35
2018-07-12T05:39:34.450Z,82.15
2018-07-12T05:42:05.986Z,82.41
2018-07-12T05:44:38.633Z,82.12
2018-07-12T05:47:08.398Z,81.83
2018-07-12T05:49:39.217Z,81.69
2018-07-12T05:52:10.023Z,82.26
2018-07-12T05:54:40.834Z,81.95
2018-07-12T05:57:12.142Z,81.67
2018-07-12T05:59:42.965Z,81.10
2018-07-12T06:02:20.106Z,83.59
2018-07-12T06:04:50.349Z,82.52
2018-07-12T06:07:25.230Z,81.04
2018-07-12T06:09:55.171Z,80.36
2018-07-12T06:12:24.954Z,80.37
2018-07-12T06:14:54.810Z,80.00
2018-07-12T06:17:24.574Z,80.37
2018-07-12T06:19:54.373Z,79.92
2018-07-12T06:22:24.211Z,77.78
2018-07-12T06:24:54.026Z,77.33
2018-07-12T06:27:23.797Z,77.75
2018-07-12T06:29:54.701Z,77.19
2018-07-12T06:32:26.063Z,75.53
2018-07-12T06:34:56.953Z,75.65
2018-07-12T06:37:27.771Z,76.20
2018-07-12T06:39:59.370Z,74.98
2018-07-12T06:42:30.067Z,74.74
2018-07-12T06:45:01.156Z,74.71
2018-07-12T06:47:32.020Z,75.50
2018-07-12T06:50:02.786Z,74.50
2018-07-12T06:52:34.673Z,75.52
2018-07-12T06:55:05.033Z,75.03
2018-07-12T06:57:35.918Z,73.80
2018-07-12T07:00:06.742Z,71.85
2018-07-12T07:02:38.128Z,72.77
2018-07-12T07:05:08.950Z,71.34
2018-07-12T07:07:39.796Z,71.43
2018-07-12T07:10:10.701Z,72.68
2018-07-12T07:12:42.098Z,71.50
2018-07-12T07:15:12.891Z,70.08
2018-07-12T07:17:47.659Z,71.10
2018-07-12T07:20:17.638Z,71.67
2018-07-12T07:22:47.620Z,69.72
2018-07-12T07:25:17.402Z,69.21
2018-07-12T07:27:47.997Z,70.04
2018-07-12T07:30:17.965Z,69.18
2018-07-12T07:32:48.796Z,68.38
2018-07-12T07:35:19.741Z,68.99
2018-07-12T07:37:51.017Z,68.63
2018-07-12T07:40:21.802Z,68.34
2018-07-12T07:42:52.743Z,68.91
2018-07-12T07:45:23.985Z,69.69
2018-07-12T07:47:55.026Z,66.81
2018-07-12T07:50:25.751Z,65.50
2018-07-12T07:52:56.733Z,65.81
2018-07-12T07:55:32.292Z,64.21
2018-07-12T08:00:53.633Z,64.16
2018-07-12T08:03:23.500Z,61.96
2018-07-12T08:05:53.469Z,61.29
2018-07-12T08:08:23.267Z,60.53
2018-07-12T08:10:53.232Z,60.93
2018-07-12T08:13:23.158Z,61.82
2018-07-12T08:15:53.075Z,62.16
2018-07-12T08:18:23.213Z,61.05
2018-07-12T08:20:53.414Z,61.46
2018-07-12T08:23:23.677Z,59.18
2018-07-12T08:25:54.350Z,59.88
2018-07-12T08:28:26.937Z,59.83
2018-07-12T08:30:57.417Z,57.63
2018-07-12T08:33:27.860Z,58.30
2018-07-12T08:35:58.222Z,58.82
2018-07-12T08:38:28.055Z,58.97
2018-07-12T08:40:58.553Z,58.97
2018-07-12T08:43:28.686Z,59.09
2018-07-12T08:45:58.635Z,55.78
2018-07-12T08:48:28.529Z,56.40
2018-07-12T08:50:58.733Z,56.28
2018-07-12T08:53:28.538Z,53.04
2018-07-12T08:55:58.451Z,53.82
2018-07-12T08:58:28.353Z,53.04
2018-07-12T09:00:58.703Z,52.54
2018-07-12T09:03:28.530Z,51.11
2018-07-12T09:05:58.442Z,51.05
2018-07-12T09:08:28.748Z,50.29
2018-07-12T09:10:58.665Z,51.16
2018-07-12T09:13:28.506Z,51.41
2018-07-12T09:15:59.038Z,49.87
2018-07-12T09:18:29.796Z,49.84
2018-07-12T09:21:00.696Z,50.56
2018-07-12T09:23:31.959Z,49.05
2018-07-12T09:26:02.728Z,47.23
2018-07-12T09:28:33.639Z,47.71
2018-07-12T09:31:05.068Z,48.57
2018-07-12T09:33:35.837Z,47.59
2018-07-12T09:36:06.945Z,48.87
2018-07-12T09:38:53.131Z,48.38
2018-07-12T09:41:24.713Z,47.78
2018-07-12T09:43:54.936Z,49.24
2018-07-12T09:46:25.028Z,49.98
2018-07-12T09:48:55.186Z,48.36
2018-07-12T09:51:25.137Z,49.14
2018-07-12T09:53:55.555Z,47.44
2018-07-12T09:56:35.222Z,47.54
2018-07-12T09:59:05.315Z,47.57
2018-07-12T10:01:40.295Z,48.77
2018-07-12T10:04:10.150Z,51.74
2018-07-12T10:06:44.893Z,53.65
2018-07-12T10:09:19.989Z,57.95
2018-07-12T10:11:55.044Z,56.11
2018-07-12T10:14:30.019Z,57.19
2018-07-12T10:17:05.000Z,58.84
2018-07-12T10:19:35.040Z,59.32
2018-07-12T10:22:05.041Z,59.44
2018-07-12T10:24:35.136Z,59.56
2018-07-12T10:27:05.220Z,61.16
2018-07-12T10:29:35.095Z,62.25
2018-07-12T10:32:05.011Z,62.77
2018-07-12T10:34:35.017Z,60.75
2018-07-12T10:37:05.165Z,58.65
2018-07-12T10:39:35.118Z,59.15
2018-07-12T10:42:04.975Z,59.06
2018-07-12T10:44:35.258Z,60.70
2018-07-12T10:47:05.222Z,63.94
2018-07-12T10:49:35.188Z,64.99
2018-07-12T10:52:05.109Z,65.60
2018-07-12T10:54:35.111Z,64.90
2018-07-12T10:57:05.176Z,64.93
2018-07-12T10:59:35.078Z,64.85
2018-07-12T11:02:05.101Z,65.84
2018-07-12T11:04:35.020Z,65.24
2018-07-12T11:07:05.154Z,64.54
2018-07-12T11:09:35.130Z,64.54
2018-07-12T11:12:04.988Z,64.94
2018-07-12T11:14:35.065Z,65.92
2018-07-12T11:17:05.034Z,66.72
2018-07-12T11:19:35.058Z,68.35
2018-07-12T11:22:05.357Z,68.16
2018-07-12T11:24:35.378Z,67.63
2018-07-12T11:27:05.266Z,67.81
2018-07-12T11:29:45.820Z,67.80
2018-07-12T11:32:15.610Z,68.45
2018-07-12T11:34:45.446Z,69.03
2018-07-12T11:37:21.596Z,68.29
2018-07-12T11:39:51.661Z,68.14
2018-07-12T11:42:21.443Z,67.86
2018-07-12T11:44:51.653Z,68.95
2018-07-12T11:47:21.845Z,70.03
2018-07-12T11:49:52.080Z,71.13
2018-07-12T11:52:22.148Z,72.55
2018-07-12T11:54:52.849Z,73.29
2018-07-12T11:57:25.266Z,73.59
2018-07-12T11:59:55.358Z,74.16
2018-07-12T12:02:25.270Z,73.31
2018-07-12T12:04:55.132Z,74.49
2018-07-12T12:07:25.138Z,73.55
2018-07-12T12:09:55.066Z,75.27
2018-07-12T12:12:25.079Z,75.29
2018-07-12T12:14:55.035Z,76.15
2018-07-12T12:17:24.972Z,77.02
2018-07-12T12:19:54.992Z,76.14
2018-07-12T12:22:25.062Z,76.02
2018-07-12T12:24:55.067Z,75.96
2018-07-12T12:27:25.249Z,73.41
2018-07-12T12:29:55.769Z,72.10
2018-07-12T12:32:26.065Z,71.98
2018-07-12T12:34:56.828Z,71.91
2018-07-12T12:37:26.904Z,72.12
2018-07-12T12:39:57.074Z,71.77
2018-07-12T12:42:27.605Z,71.10
2018-07-12T12:44:57.761Z,70.77
2018-07-12T12:47:27.600Z,70.25
2018-07-12T12:49:57.877Z,69.83
2018-07-12T12:52:28.027Z,69.41
2018-07-12T12:54:57.974Z,69.21
2018-07-12T12:57:27.790Z,67.97
2018-07-12T12:59:58.098Z,67.24
2018-07-12T13:02:27.911Z,64.59
2018-07-12T13:04:57.818Z,64.82
2018-07-12T13:07:27.680Z,61.41
2018-07-12T13:09:57.604Z,62.27
2018-07-12T13:12:27.961Z,61.33
2018-07-12T13:14:57.882Z,61.41
2018-07-12T13:17:27.795Z,61.03
2018-07-12T13:19:58.911Z,59.63
2018-07-12T13:22:29.787Z,58.88
2018-07-12T13:25:01.166Z,58.82
2018-07-12T13:27:31.975Z,58.36
2018-07-12T13:30:03.652Z,57.37
2018-07-12T13:32:33.933Z,56.36
2018-07-12T13:35:04.846Z,55.11
2018-07-12T13:37:35.765Z,53.70
2018-07-12T13:40:07.721Z,53.89
2018-07-12T13:42:38.089Z,53.94
2018-07-12T13:45:09.079Z,52.96
2018-07-12T13:47:39.943Z,54.63
2018-07-12T13:50:11.047Z,53.91
2018-07-12T13:52:41.855Z,52.41
2018-07-12T13:55:12.937Z,52.05
2018-07-12T13:57:43.890Z,52.39
2018-07-12T14:00:14.851Z,51.64
2018-07-12T14:02:48.393Z,50.43
2018-07-12T14:05:18.857Z,50.95
2018-07-12T14:07:48.737Z,51.83
2018-07-12T14:10:18.949Z,52.03
2018-07-12T14:12:50.882Z,51.91
2018-07-12T14:15:20.951Z,52.41
2018-07-12T14:17:51.972Z,51.56
2018-07-12T14:20:23.662Z,52.16
2018-07-12T14:22:54.149Z,50.93
2018-07-12T14:25:25.047Z,50.33
2018-07-12T14:27:55.825Z,49.42
2018-07-12T14:30:26.745Z,45.30
2018-07-12T14:32:57.630Z,45.62
2018-07-12T14:35:27.587Z,45.60
2018-07-12T14:37:59.921Z,46.50
2018-07-12T14:40:30.784Z,43.93
2018-07-12T14:43:01.590Z,46.12
2018-07-12T14:45:32.996Z,45.85
2018-07-12T14:48:03.746Z,45.71
2018-07-12T14:50:35.225Z,44.19
2018-07-12T14:53:06.032Z,42.85
2018-07-12T14:55:37.105Z,43.74
2018-07-12T14:58:07.986Z,43.05
2018-07-12T15:00:39.164Z,41.88
2018-07-12T15:03:10.626Z,42.98
2018-07-12T15:05:40.886Z,42.87
2018-07-12T15:08:11.655Z,43.26
2018-07-12T15:10:44.249Z,44.57
2018-07-12T15:13:14.035Z,45.72
2018-07-12T15:15:44.895Z,45.75
2018-07-12T15:18:15.989Z,46.24
2018-07-12T15:20:47.086Z,46.70
2018-07-12T15:23:17.815Z,47.50
2018-07-12T15:25:48.693Z,46.57
2018-07-12T15:28:19.579Z,47.09
2018-07-12T15:30:50.999Z,48.78
2018-07-12T15:33:21.681Z,49.15
2018-07-12T15:35:53.111Z,48.72
2018-07-12T15:38:23.818Z,49.30
2018-07-12T15:40:54.643Z,49.89
2018-07-12T15:43:26.020Z,50.86
2018-07-12T15:45:56.801Z,51.22
2018-07-12T15:48:27.714Z,50.54
2018-07-12T15:50:58.639Z,50.80
2018-07-12T15:53:29.915Z,51.59
2018-07-12T15:56:00.707Z,51.81
2018-07-12T15:58:31.926Z,50.33
2018-07-12T16:01:02.701Z,51.42
2018-07-12T16:03:33.581Z,50.85
2018-07-12T16:06:04.970Z,51.11
2018-07-12T16:08:35.813Z,51.21
2018-07-12T16:11:06.710Z,51.53
2018-07-12T16:13:37.970Z,51.72
2018-07-12T16:16:08.782Z,52.55
2018-07-12T16:18:40.057Z,53.74
2018-07-12T16:21:10.823Z,54.25
2018-07-12T16:23:41.864Z,54.70
2018-07-12T16:26:13.602Z,55.88
2018-07-12T16:28:44.180Z,55.87
2018-07-12T16:31:15.622Z,56.04
2018-07-12T16:33:46.030Z,56.36
2018-07-12T16:36:16.860Z,56.18
2018-07-12T16:38:47.757Z,56.83
2018-07-12T16:41:17.706Z,57.27
2018-07-12T16:43:48.970Z,57.56
2018-07-12T16:46:20.091Z,58.05
2018-07-12T16:48:51.621Z,57.95
2018-07-12T16:51:22.006Z,58.29
2018-07-12T16:53:52.783Z,58.72
2018-07-12T16:56:23.693Z,58.60
2018-07-12T16:58:54.921Z,58.47
2018-07-12T17:01:25.719Z,58.53
2018-07-12T17:03:56.662Z,58.20
2018-07-12T17:06:28.416Z,58.48
2018-07-12T17:08:58.998Z,58.61
2018-07-12T17:11:29.852Z,58.56
2018-07-12T17:14:00.658Z,58.83
2018-07-12T17:16:32.014Z,58.94
2018-07-12T17:19:02.733Z,58.89
2018-07-12T17:21:33.689Z,58.71
2018-07-12T17:24:15.339Z,59.17
2018-07-12T17:26:45.630Z,59.58
2018-07-12T17:29:15.451Z,59.42
2018-07-12T17:31:45.366Z,59.00
2018-07-12T17:34:15.743Z,59.18
2018-07-12T17:36:45.654Z,59.33
2018-07-12T17:39:15.614Z,59.59
2018-07-12T17:41:45.603Z,60.01
2018-07-12T17:44:15.463Z,59.85
2018-07-12T17:46:46.327Z,59.29
2018-07-12T17:49:16.416Z,59.33
2018-07-12T17:51:46.791Z,59.25
2018-07-12T17:54:16.694Z,59.93
2018-07-12T17:56:46.647Z,59.97
2018-07-12T17:59:18.075Z,59.68
2018-07-12T18:01:48.888Z,60.21
2018-07-12T18:04:19.705Z,59.78
2018-07-12T18:06:50.721Z,59.94
2018-07-12T18:09:21.728Z,60.51
2018-07-12T18:11:53.211Z,60.38
2018-07-12T18:14:23.913Z,60.86
2018-07-12T18:16:55.698Z,61.19
2018-07-12T18:19:25.823Z,61.37
2018-07-12T18:21:57.202Z,61.87
2018-07-12T18:24:27.942Z,61.49
2018-07-12T18:26:58.900Z,61.23
2018-07-12T18:29:29.827Z,61.43
2018-07-12T18:32:00.458Z,62.02
2018-07-12T18:34:31.094Z,62.07
2018-07-12T18:37:02.291Z,61.87
2018-07-12T18:39:32.877Z,62.17
2018-07-12T18:42:03.849Z,62.70
2018-07-12T18:44:34.732Z,62.66
2018-07-12T18:47:06.550Z,62.49
2018-07-12T18:49:37.254Z,62.44
2018-07-12T18:52:08.273Z,62.36
2018-07-12T18:54:39.190Z,62.70
2018-07-12T18:57:10.039Z,63.52
2018-07-12T18:59:40.846Z,63.68
2018-07-12T19:02:11.862Z,63.60
2018-07-12T19:04:42.798Z,64.14
2018-07-12T19:07:13.713Z,63.53
2018-07-12T19:09:45.046Z,64.51
2018-07-12T19:12:15.921Z,65.01
2018-07-12T19:14:46.960Z,64.79
2018-07-12T19:17:17.794Z,65.05
2018-07-12T19:19:48.690Z,65.12
2018-07-12T19:22:20.149Z,65.83
2018-07-12T19:24:50.875Z,66.07
2018-07-12T19:27:21.779Z,66.71
2018-07-12T19:29:52.845Z,67.00
2018-07-12T19:32:23.826Z,67.50
2018-07-12T19:34:54.753Z,67.56
2018-07-12T19:37:25.877Z,67.36
2018-07-12T19:39:56.749Z,67.82
2018-07-12T19:42:27.812Z,68.54
2018-07-12T19:44:58.777Z,68.83
2018-07-12T19:47:29.730Z,68.69
2018-07-12T19:50:00.986Z,68.64
2018-07-12T19:52:31.966Z,69.57
2018-07-12T19:55:03.216Z,69.81
2018-07-12T19:57:33.990Z,69.17
2018-07-12T20:00:05.208Z,69.30
2018-07-12T20:02:36.109Z,69.54
2018-07-12T20:05:07.105Z,70.17
2018-07-12T20:07:38.134Z,69.76
2018-07-12T20:10:08.876Z,69.65
2018-07-12T20:12:38.773Z,70.19
2018-07-12T20:15:09.869Z,70.26
2018-07-12T20:17:40.820Z,70.09
2018-07-12T20:20:11.818Z,70.70
2018-07-12T20:22:42.809Z,70.82
2018-07-12T20:25:13.835Z,71.47
2018-07-12T20:27:44.892Z,70.89
2018-07-12T20:30:15.796Z,71.11
2018-07-12T20:32:46.883Z,70.94
2018-07-12T20:35:17.774Z,70.87
2018-07-12T20:37:48.748Z,70.85
2018-07-12T20:40:19.752Z,70.74
2018-07-12T20:42:51.657Z,70.98
2018-07-12T20:45:22.213Z,71.14
2018-07-12T20:47:53.328Z,70.76
2018-07-12T20:50:24.918Z,71.45
2018-07-12T20:52:54.911Z,71.35
2018-07-12T20:55:25.699Z,71.23
2018-07-12T20:57:57.002Z,71.68
2018-07-12T21:00:27.800Z,71.94
2018-07-12T21:02:58.816Z,71.68
2018-07-12T21:05:29.740Z,71.61
2018-07-12T21:08:01.172Z,71.83
2018-07-12T21:10:34.677Z,72.32
2018-07-12T21:13:04.550Z,72.12
2018-07-12T21:15:34.426Z,72.59
2018-07-12T21:18:05.031Z,72.26
2018-07-12T21:20:35.803Z,72.24
2018-07-12T21:23:06.919Z,72.87
2018-07-12T21:25:36.747Z,72.74
2018-07-12T21:28:07.955Z,72.75
2018-07-12T21:30:38.753Z,73.18
2018-07-12T21:33:09.665Z,72.79
2018-07-12T21:35:39.780Z,73.22
2018-07-12T21:38:10.838Z,73.27
2018-07-12T21:40:41.622Z,73.65
2018-07-12T21:43:13.042Z,73.83
2018-07-12T21:45:44.750Z,74.16
2018-07-12T21:48:15.241Z,74.11
2018-07-12T21:50:45.014Z,74.46
2018-07-12T21:53:15.777Z,74.82
2018-07-12T21:55:46.634Z,74.84
2018-07-12T21:58:18.149Z,75.14
2018-07-12T22:00:48.869Z,75.04
2018-07-12T22:03:19.814Z,74.80
2018-07-12T22:05:50.619Z,75.08
2018-07-12T22:08:26.020Z,74.92
2018-07-12T22:11:05.398Z,74.64
2018-07-12T22:13:36.400Z,74.55
2018-07-12T22:16:06.858Z,74.69
2018-07-12T22:18:36.666Z,74.41
2018-07-12T22:21:06.513Z,74.44
2018-07-12T22:23:36.460Z,74.45
2018-07-12T22:26:06.466Z,74.60
2018-07-12T22:28:36.717Z,74.80
2018-07-12T22:31:06.538Z,74.82
2018-07-12T22:33:36.425Z,75.05
2018-07-12T22:36:06.498Z,74.96
2018-07-12T22:38:36.334Z,75.39
2018-07-12T22:41:06.129Z,75.25
2018-07-12T22:43:35.972Z,75.69
2018-07-12T22:46:05.820Z,75.78
2018-07-12T22:48:36.790Z,76.16
2018-07-12T22:51:07.725Z,76.68
2018-07-12T22:53:39.000Z,76.73
2018-07-12T22:56:10.122Z,76.59
2018-07-12T22:58:39.966Z,77.18
2018-07-12T23:01:10.781Z,76.77
2018-07-12T23:03:42.041Z,77.21
2018-07-12T23:06:12.815Z,76.77
2018-07-12T23:08:43.736Z,76.84
2018-07-12T23:11:14.630Z,77.16
2018-07-12T23:13:46.010Z,77.49
2018-07-12T23:16:16.839Z,77.38
2018-07-12T23:18:47.730Z,78.48
2018-07-12T23:21:19.014Z,77.42
2018-07-12T23:23:49.845Z,77.21
2018-07-12T23:26:20.705Z,77.35
2018-07-12T23:28:52.018Z,77.73
2018-07-12T23:31:23.796Z,77.76
2018-07-12T23:33:53.711Z,77.72
2018-07-12T23:36:24.959Z,77.64
2018-07-12T23:38:55.761Z,77.88
2018-07-12T23:41:26.762Z,77.62
2018-07-12T23:43:58.050Z,77.50
2018-07-12T23:46:28.845Z,77.79
2018-07-12T23:48:59.710Z,77.58
2018-07-12T23:51:31.017Z,78.17
2018-07-12T23:54:01.867Z,77.72
2018-07-12T23:56:32.778Z,78.71
2018-07-12T23:59:03.738Z,78.98
